This is the latest recevied weather packets stored in our database for station/object YO6SAY-10. If no packets are shown the sender has not sent any weather packets the latest 10 day(s).
| Time | Temp. | Humidity | Pressure | Rain* | Wind** | Luminosity | Snow |
|---|---|---|---|---|---|---|---|
| 1777730401 | 12.78° C | 49% | 955.1 hPa | - | - | - | - |
| 1777729501 | 13.33° C | 49% | 955 hPa | - | - | - | - |
| 1777728601 | 13.33° C | 47% | 955.2 hPa | - | - | - | - |
| 1777727700 | 12.78° C | 47% | 955.3 hPa | - | - | - | - |
| 1777726800 | 12.78° C | 47% | 955.4 hPa | - | - | - | - |
| 1777725900 | 12.78° C | 47% | 955.3 hPa | - | - | - | - |
| 1777724999 | 12.78° C | 47% | 955.3 hPa | - | - | - | - |
| 1777724099 | 13.33° C | 47% | 955.3 hPa | - | - | - | - |
| 1777723194 | 13.33° C | 46% | 955.3 hPa | - | - | - | - |
| 1777722294 | 13.89° C | 46% | 955.4 hPa | - | - | - | - |
| 1777721394 | 15° C | 46% | 955.1 hPa | - | - | - | - |
| 1777720494 | 15.56° C | 45% | 954.8 hPa | - | - | - | - |
| 1777719594 | 16.67° C | 44% | 954.9 hPa | - | - | - | - |
| 1777718694 | 15.56° C | 45% | 955.1 hPa | - | - | - | - |
| 1777717793 | 14.44° C | 46% | 955.2 hPa | - | - | - | - |
| 1777716893 | 14.44° C | 46% | 955.4 hPa | - | - | - | - |
| 1777715993 | 13.89° C | 46% | 955.6 hPa | - | - | - | - |
| 1777715093 | 13.33° C | 46% | 955.7 hPa | - | - | - | - |
| 1777714193 | 11.11° C | 46% | 956 hPa | - | - | - | - |
| 1777713292 | 10.56° C | 45% | 956.2 hPa | - | - | - | - |
| 1777712392 | 10.56° C | 45% | 956.1 hPa | - | - | - | - |
| 1777711492 | 11.11° C | 44% | 956.1 hPa | - | - | - | - |
| 1777710592 | 11.11° C | 44% | 956.1 hPa | - | - | - | - |
| 1777709692 | 11.67° C | 44% | 956 hPa | - | - | - | - |
| 1777708792 | 12.22° C | 44% | 955.9 hPa | - | - | - | - |
* Rain since midnight (hover to see other rain measurements)
** Current wind speed in m/s (hover to see current wind gust speed)